createdAt,value
2023-03-15T00:00:07.056Z,.88
2023-03-15T00:00:39.000Z,.88
2023-03-15T00:01:10.947Z,.88
2023-03-15T00:01:42.557Z,.88
2023-03-15T00:02:14.624Z,.88
2023-03-15T00:02:46.628Z,.88
2023-03-15T00:03:18.694Z,.88
2023-03-15T00:03:50.564Z,.88
2023-03-15T00:04:22.558Z,.88
2023-03-15T00:04:54.589Z,.88
2023-03-15T00:05:26.529Z,.88
2023-03-15T00:05:58.330Z,.88
2023-03-15T00:06:30.485Z,.88
2023-03-15T00:07:02.405Z,.88
2023-03-15T00:07:34.823Z,.88
2023-03-15T00:08:06.264Z,.88
2023-03-15T00:08:38.294Z,.88
2023-03-15T00:09:10.394Z,1.00
2023-03-15T00:09:42.455Z,1.00
2023-03-15T00:10:14.494Z,1.00
2023-03-15T00:10:46.163Z,1.00
2023-03-15T00:11:18.217Z,1.00
2023-03-15T00:11:50.303Z,1.00
2023-03-15T00:12:22.119Z,1.00
2023-03-15T00:12:54.090Z,1.11
2023-03-15T00:13:26.115Z,1.11
2023-03-15T00:13:58.145Z,1.11
2023-03-15T00:14:30.239Z,1.11
2023-03-15T00:15:02.245Z,1.11
2023-03-15T00:15:34.079Z,1.11
2023-03-15T00:16:06.275Z,1.11
2023-03-15T00:16:38.179Z,1.11
2023-03-15T00:17:09.947Z,1.11
2023-03-15T00:17:41.966Z,1.11
2023-03-15T00:18:13.997Z,1.11
2023-03-15T00:18:45.987Z,1.11
2023-03-15T00:19:17.803Z,1.11
2023-03-15T00:19:49.910Z,1.11
2023-03-15T00:20:21.866Z,1.11
2023-03-15T00:20:53.861Z,1.11
2023-03-15T00:21:25.730Z,1.11
2023-03-15T00:21:57.750Z,1.22
2023-03-15T00:22:29.796Z,1.22
2023-03-15T00:23:02.058Z,1.22
2023-03-15T00:23:33.641Z,1.11
2023-03-15T00:24:05.628Z,1.11
2023-03-15T00:24:37.666Z,1.11
2023-03-15T00:25:09.751Z,1.11
2023-03-15T00:25:41.568Z,1.11
2023-03-15T00:26:13.608Z,1.00
2023-03-15T00:26:45.590Z,1.00
2023-03-15T00:27:17.604Z,1.00
2023-03-15T00:27:49.450Z,1.11
2023-03-15T00:28:21.472Z,1.11
2023-03-15T00:28:53.514Z,1.11
2023-03-15T00:29:25.503Z,1.11
2023-03-15T00:29:57.320Z,1.11
2023-03-15T00:30:29.511Z,1.11
2023-03-15T00:31:01.439Z,1.11
2023-03-15T00:31:33.489Z,1.11
2023-03-15T00:32:05.240Z,1.11
2023-03-15T00:32:37.285Z,1.11
2023-03-15T00:33:09.343Z,1.11
2023-03-15T00:33:41.517Z,1.11
2023-03-15T00:34:13.193Z,1.00
2023-03-15T00:34:45.164Z,1.00
2023-03-15T00:35:17.271Z,1.00
2023-03-15T00:35:49.323Z,.88
2023-03-15T00:36:21.272Z,.88
2023-03-15T00:36:53.077Z,.88
2023-03-15T00:37:25.111Z,.88
2023-03-15T00:37:57.157Z,.88
2023-03-15T00:38:28.985Z,.77
2023-03-15T00:39:01.071Z,.77
2023-03-15T00:39:33.027Z,.77
2023-03-15T00:40:05.063Z,.72
2023-03-15T00:40:37.051Z,.72
2023-03-15T00:41:09.537Z,.72
2023-03-15T00:41:41.126Z,.72
2023-03-15T00:42:12.987Z,.61
2023-03-15T00:42:44.786Z,.61
2023-03-15T00:43:16.870Z,.61
2023-03-15T00:43:48.852Z,.50
2023-03-15T00:44:20.968Z,.50
2023-03-15T00:44:52.709Z,.50
2023-03-15T00:45:24.876Z,.50
2023-03-15T00:45:57.156Z,.50
2023-03-15T00:46:28.808Z,.38
2023-03-15T00:47:00.784Z,.38
2023-03-15T00:47:32.665Z,.38
2023-03-15T00:48:04.721Z,.38
2023-03-15T00:48:36.715Z,.38
2023-03-15T00:49:08.525Z,.38
2023-03-15T00:49:40.807Z,.38
2023-03-15T00:50:12.609Z,.38
2023-03-15T00:50:44.605Z,.27
2023-03-15T00:51:16.450Z,.27
2023-03-15T00:51:48.512Z,.27
2023-03-15T00:52:20.667Z,.27
2023-03-15T00:52:52.529Z,.22
2023-03-15T00:53:24.376Z,.22
2023-03-15T00:53:56.369Z,.22
2023-03-15T00:54:28.390Z,.22
2023-03-15T00:55:00.582Z,.22
2023-03-15T00:55:32.354Z,.11
2023-03-15T00:56:04.322Z,.11
2023-03-15T00:56:36.344Z,.11
2023-03-15T00:57:08.481Z,.11
2023-03-15T00:57:40.340Z,.22
2023-03-15T00:58:12.305Z,.22
2023-03-15T00:58:44.280Z,.22
2023-03-15T00:59:16.334Z,.22
2023-03-15T00:59:48.094Z,.22
2023-03-15T01:00:20.438Z,.22
2023-03-15T01:00:52.256Z,.22
2023-03-15T01:01:24.362Z,.27
2023-03-15T01:01:56.171Z,.27
2023-03-15T01:02:28.131Z,.27
2023-03-15T01:03:00.180Z,.27
2023-03-15T01:03:32.131Z,.27
2023-03-15T01:04:03.921Z,.27
2023-03-15T01:04:35.942Z,.27
2023-03-15T01:05:07.992Z,.27
2023-03-15T01:05:40.132Z,.27
2023-03-15T01:06:11.872Z,.27
2023-03-15T01:06:43.853Z,.27
2023-03-15T01:07:15.875Z,.27
2023-03-15T01:07:47.920Z,.27
2023-03-15T01:08:19.774Z,.27
2023-03-15T01:08:51.754Z,.27
2023-03-15T01:09:23.770Z,.27
2023-03-15T01:09:55.829Z,.27
2023-03-15T01:10:27.644Z,.27
2023-03-15T01:10:59.677Z,.27
2023-03-15T01:11:31.697Z,.27
2023-03-15T01:12:03.725Z,.22
2023-03-15T01:12:35.543Z,.22
2023-03-15T01:13:07.644Z,.22
2023-03-15T01:13:39.648Z,.22
2023-03-15T01:14:11.666Z,.22
2023-03-15T01:14:43.459Z,.22
2023-03-15T01:15:15.626Z,.22
2023-03-15T01:15:47.572Z,.22
2023-03-15T01:16:19.601Z,.22
2023-03-15T01:16:51.404Z,.22
2023-03-15T01:17:23.406Z,.22
2023-03-15T01:17:55.417Z,.22
2023-03-15T01:18:27.452Z,.22
2023-03-15T01:18:59.254Z,.22
2023-03-15T01:19:31.364Z,.22
2023-03-15T01:20:03.448Z,.11
2023-03-15T01:20:35.430Z,.11
2023-03-15T01:21:07.170Z,.11
2023-03-15T01:21:39.253Z,.11
2023-03-15T01:22:11.319Z,.11
2023-03-15T01:22:43.395Z,.11
2023-03-15T01:23:15.090Z,0
2023-03-15T01:23:47.118Z,0
2023-03-15T01:24:19.128Z,0
2023-03-15T01:24:51.358Z,-.11
2023-03-15T01:25:23.031Z,-.11
2023-03-15T01:25:55.070Z,-.11
2023-03-15T01:26:27.080Z,-.11
2023-03-15T01:26:59.119Z,-.11
2023-03-15T01:27:31.067Z,-.11
2023-03-15T01:28:02.991Z,-.11
2023-03-15T01:28:35.064Z,-.11
2023-03-15T01:29:07.044Z,-.22
2023-03-15T01:29:38.859Z,-.22
2023-03-15T01:30:11.297Z,-.22
2023-03-15T01:30:42.905Z,-.22
2023-03-15T01:31:15.040Z,-.22
2023-03-15T01:31:46.891Z,-.22
2023-03-15T01:32:18.916Z,-.27
2023-03-15T01:32:51.015Z,-.27
2023-03-15T01:33:22.886Z,-.27
2023-03-15T01:33:54.697Z,-.27
2023-03-15T01:34:26.685Z,-.27
2023-03-15T01:34:58.721Z,-.27
2023-03-15T01:35:30.988Z,-.22
2023-03-15T01:36:02.628Z,-.22
2023-03-15T01:36:34.602Z,-.22
2023-03-15T01:37:06.623Z,-.22
2023-03-15T01:37:38.696Z,-.22
2023-03-15T01:38:10.734Z,-.22
2023-03-15T01:38:42.514Z,-.27
2023-03-15T01:39:14.527Z,-.27
2023-03-15T01:39:46.550Z,-.27
2023-03-15T01:40:18.526Z,-.27
2023-03-15T01:40:50.475Z,-.27
2023-03-15T01:41:22.479Z,-.22
2023-03-15T01:41:54.311Z,-.22
2023-03-15T01:42:26.343Z,-.11
2023-03-15T01:42:58.341Z,-.11
2023-03-15T01:43:30.508Z,-.11
2023-03-15T01:44:02.450Z,-.11
2023-03-15T01:44:34.856Z,-.11
2023-03-15T01:45:06.546Z,-.22
2023-03-15T01:45:38.324Z,-.22
2023-03-15T01:46:10.487Z,-.22
2023-03-15T01:46:42.237Z,-.22
2023-03-15T01:47:14.167Z,-.27
2023-03-15T01:47:46.188Z,-.27
2023-03-15T01:48:18.238Z,-.27
2023-03-15T01:48:50.065Z,-.27
2023-03-15T01:49:22.072Z,-.27
2023-03-15T01:49:54.283Z,-.27
2023-03-15T01:50:26.119Z,-.27
2023-03-15T01:50:57.958Z,-.27
2023-03-15T01:51:29.977Z,-.27
2023-03-15T01:52:02.010Z,-.22
2023-03-15T01:52:34.213Z,-.22
2023-03-15T01:53:05.842Z,-.11
2023-03-15T01:53:37.931Z,-.11
2023-03-15T01:54:09.983Z,0
2023-03-15T01:54:41.937Z,0
2023-03-15T01:55:13.759Z,0
2023-03-15T01:55:45.885Z,0
2023-03-15T01:56:17.814Z,-.11
2023-03-15T01:56:49.837Z,-.11
2023-03-15T01:57:21.762Z,-.11
2023-03-15T01:57:53.702Z,-.11
2023-03-15T01:58:25.737Z,-.11
2023-03-15T01:58:57.742Z,0
2023-03-15T01:59:29.576Z,.11
2023-03-15T02:00:01.885Z,.11
2023-03-15T02:00:33.680Z,.11
2023-03-15T02:01:05.734Z,.11
2023-03-15T02:01:37.517Z,.22
2023-03-15T02:02:09.618Z,.22
2023-03-15T02:02:41.628Z,.22
2023-03-15T02:03:13.591Z,.22
2023-03-15T02:03:45.490Z,.27
2023-03-15T02:04:17.407Z,.27
2023-03-15T02:04:49.519Z,.27
2023-03-15T02:05:21.527Z,.27
2023-03-15T02:05:53.311Z,.27
2023-03-15T02:06:25.334Z,.27
2023-03-15T02:06:57.646Z,.27
2023-03-15T02:07:29.405Z,.38
2023-03-15T02:08:01.298Z,.38
2023-03-15T02:08:33.255Z,.38
2023-03-15T02:09:05.278Z,.38
2023-03-15T02:09:37.384Z,.38
2023-03-15T02:10:09.142Z,.50
2023-03-15T02:10:41.247Z,.50
2023-03-15T02:11:13.172Z,.50
2023-03-15T02:11:45.198Z,.50
2023-03-15T02:12:17.020Z,.50
2023-03-15T02:12:49.038Z,.50
2023-03-15T02:13:21.224Z,.50
2023-03-15T02:13:53.117Z,.50
2023-03-15T02:14:25.128Z,.50
2023-03-15T02:14:56.961Z,.61
2023-03-15T02:15:29.124Z,.72
2023-03-15T02:16:01.200Z,.72
2023-03-15T02:16:32.898Z,.72
2023-03-15T02:17:04.868Z,.72
2023-03-15T02:17:36.940Z,.72
2023-03-15T02:18:09.499Z,.72
2023-03-15T02:18:41.032Z,.72
2023-03-15T02:19:12.757Z,.72
2023-03-15T02:19:44.806Z,.61
2023-03-15T02:20:16.837Z,.61
2023-03-15T02:20:48.843Z,.61
2023-03-15T02:21:20.851Z,.61
2023-03-15T02:21:52.761Z,.61
2023-03-15T02:22:24.824Z,.61
2023-03-15T02:22:56.755Z,.61
2023-03-15T02:23:28.603Z,.61
2023-03-15T02:24:00.729Z,.61
2023-03-15T02:24:32.648Z,.61
2023-03-15T02:25:04.729Z,.61
2023-03-15T02:25:36.526Z,.61
2023-03-15T02:26:08.571Z,.61
2023-03-15T02:26:40.714Z,.61
2023-03-15T02:27:12.663Z,.61
2023-03-15T02:27:44.398Z,.72
2023-03-15T02:28:16.453Z,.72
2023-03-15T02:28:48.500Z,.72
2023-03-15T02:29:20.612Z,.72
2023-03-15T02:29:52.318Z,.77
2023-03-15T02:30:24.499Z,.77
2023-03-15T02:30:56.366Z,.77
2023-03-15T02:31:28.429Z,.77
2023-03-15T02:32:00.438Z,.77
2023-03-15T02:32:32.288Z,.77
2023-03-15T02:33:04.284Z,.77
2023-03-15T02:33:36.346Z,.77
2023-03-15T02:34:08.158Z,.77
2023-03-15T02:34:40.403Z,.77
2023-03-15T02:35:12.233Z,.77
2023-03-15T02:35:44.320Z,.77
2023-03-15T02:36:16.055Z,.77
2023-03-15T02:36:48.067Z,.77
2023-03-15T02:37:20.230Z,.77
2023-03-15T02:37:52.130Z,.88
2023-03-15T02:38:23.968Z,.88
2023-03-15T02:38:55.972Z,.88
2023-03-15T02:39:28.007Z,.88
2023-03-15T02:40:00.024Z,.88
2023-03-15T02:40:31.885Z,.88
2023-03-15T02:41:03.898Z,.88
2023-03-15T02:41:35.987Z,.88
2023-03-15T02:42:07.985Z,.88
2023-03-15T02:42:39.767Z,.88
2023-03-15T02:43:11.903Z,.88
2023-03-15T02:43:43.836Z,.88
2023-03-15T02:44:16.072Z,.88
2023-03-15T02:44:47.663Z,.88
2023-03-15T02:45:20.021Z,.88
2023-03-15T02:45:51.799Z,.88
2023-03-15T02:46:23.838Z,.88
2023-03-15T02:46:55.702Z,.88
2023-03-15T02:47:27.628Z,.88
2023-03-15T02:47:59.671Z,.88
2023-03-15T02:48:31.671Z,.88
2023-03-15T02:49:03.665Z,.88
2023-03-15T02:49:35.746Z,.88
2023-03-15T02:50:07.565Z,.88
2023-03-15T02:50:39.566Z,.88
2023-03-15T02:51:11.596Z,.88
2023-03-15T02:51:43.427Z,.88
2023-03-15T02:52:15.502Z,.88
2023-03-15T02:52:47.449Z,.88
2023-03-15T02:53:19.529Z,.88
2023-03-15T02:53:51.441Z,.88
2023-03-15T02:54:23.334Z,.88
2023-03-15T02:54:55.388Z,1.00
2023-03-15T02:55:27.411Z,1.00
2023-03-15T02:55:59.236Z,1.00
2023-03-15T02:56:31.332Z,1.00
2023-03-15T02:57:03.408Z,1.00
2023-03-15T02:57:35.384Z,1.00
2023-03-15T02:58:07.271Z,1.11
2023-03-15T02:58:39.173Z,1.11
2023-03-15T02:59:11.218Z,1.11
2023-03-15T02:59:43.235Z,1.11
2023-03-15T03:00:15.407Z,1.11
2023-03-15T03:00:47.081Z,1.11
2023-03-15T03:01:19.125Z,1.11
2023-03-15T03:01:51.236Z,1.11
2023-03-15T03:02:23.004Z,1.11
2023-03-15T03:02:54.996Z,1.11
2023-03-15T03:03:27.020Z,1.11
2023-03-15T03:03:59.030Z,1.11
2023-03-15T03:04:31.098Z,1.11
2023-03-15T03:05:02.898Z,1.11
2023-03-15T03:05:34.962Z,1.11
2023-03-15T03:06:06.998Z,1.11
2023-03-15T03:06:38.776Z,1.22
2023-03-15T03:07:10.995Z,1.22
2023-03-15T03:07:42.840Z,1.22
2023-03-15T03:08:14.835Z,1.22
2023-03-15T03:08:46.674Z,1.22
2023-03-15T03:09:18.704Z,1.22
2023-03-15T03:09:50.879Z,1.11
2023-03-15T03:10:22.757Z,1.11
2023-03-15T03:10:54.571Z,1.11
2023-03-15T03:11:26.592Z,1.11
2023-03-15T03:11:58.629Z,1.22
2023-03-15T03:12:30.757Z,1.22
2023-03-15T03:13:02.577Z,1.22
2023-03-15T03:13:34.564Z,1.22
2023-03-15T03:14:06.577Z,1.22
2023-03-15T03:14:38.557Z,1.22
2023-03-15T03:15:11.041Z,1.22
2023-03-15T03:15:44.030Z,1.22
2023-03-15T03:16:14.465Z,1.27
2023-03-15T03:16:46.566Z,1.27
2023-03-15T03:17:18.305Z,1.27
2023-03-15T03:17:50.385Z,1.27
2023-03-15T03:18:22.356Z,1.27
2023-03-15T03:18:54.631Z,1.22
2023-03-15T03:19:26.390Z,1.22
2023-03-15T03:19:58.225Z,1.22
2023-03-15T03:20:30.301Z,1.22
2023-03-15T03:21:02.391Z,1.22
2023-03-15T03:21:34.836Z,1.22
2023-03-15T03:22:06.184Z,1.22
2023-03-15T03:22:38.296Z,1.11
2023-03-15T03:23:10.296Z,1.11
2023-03-15T03:23:42.291Z,1.11
2023-03-15T03:24:14.029Z,1.11
2023-03-15T03:24:46.248Z,1.11
2023-03-15T03:25:18.136Z,1.00
2023-03-15T03:25:50.143Z,1.00
2023-03-15T03:26:21.961Z,1.00
2023-03-15T03:26:53.982Z,1.00
2023-03-15T03:27:26.046Z,.88
2023-03-15T03:27:58.033Z,.88
2023-03-15T03:28:29.930Z,.88
2023-03-15T03:29:01.951Z,.88
2023-03-15T03:29:33.923Z,.88
2023-03-15T03:30:06.286Z,.88
2023-03-15T03:30:37.780Z,.77
2023-03-15T03:31:09.867Z,.77
2023-03-15T03:31:41.814Z,.77
2023-03-15T03:32:13.839Z,.77
2023-03-15T03:32:45.709Z,.77
2023-03-15T03:33:17.711Z,.77
2023-03-15T03:33:49.728Z,.77
2023-03-15T03:34:21.754Z,.72
2023-03-15T03:34:53.669Z,.72
2023-03-15T03:35:25.623Z,.72
2023-03-15T03:35:57.693Z,.72
2023-03-15T03:36:29.692Z,.72
2023-03-15T03:37:01.535Z,.72
2023-03-15T03:37:33.665Z,.72
2023-03-15T03:38:05.662Z,.72
2023-03-15T03:38:37.568Z,.61
2023-03-15T03:39:09.393Z,.61
2023-03-15T03:39:41.429Z,.61
2023-03-15T03:40:13.477Z,.61
2023-03-15T03:40:45.452Z,.61
2023-03-15T03:41:17.298Z,.61
2023-03-15T03:41:49.347Z,.50
2023-03-15T03:42:21.556Z,.50
2023-03-15T03:42:53.400Z,.50
2023-03-15T03:43:25.211Z,.50
2023-03-15T03:43:57.274Z,.50
2023-03-15T03:44:29.252Z,.50
2023-03-15T03:45:01.673Z,.50
2023-03-15T03:45:33.348Z,.50
2023-03-15T03:46:05.219Z,.50
2023-03-15T03:46:37.191Z,.38
2023-03-15T03:47:09.229Z,.38
2023-03-15T03:47:41.098Z,.38
2023-03-15T03:48:13.064Z,.38
2023-03-15T03:48:45.086Z,.38
2023-03-15T03:49:17.127Z,.38
2023-03-15T03:49:48.949Z,.38
2023-03-15T03:50:21.224Z,.38
2023-03-15T03:50:52.982Z,.38
2023-03-15T03:51:25.129Z,.38
2023-03-15T03:51:56.831Z,.38
2023-03-15T03:52:28.875Z,.38
2023-03-15T03:53:01.010Z,.38
2023-03-15T03:53:32.982Z,.38
2023-03-15T03:54:04.800Z,.38
2023-03-15T03:54:36.790Z,.38
2023-03-15T03:55:09.660Z,.38
2023-03-15T03:55:41.078Z,.38
2023-03-15T03:56:12.703Z,.27
2023-03-15T03:56:44.722Z,.27
2023-03-15T03:57:16.742Z,.27
2023-03-15T03:57:48.768Z,.27
2023-03-15T03:58:20.843Z,.27
2023-03-15T03:58:52.700Z,.27
2023-03-15T03:59:24.646Z,.27
2023-03-15T03:59:56.661Z,.27
2023-03-15T04:00:28.641Z,.27
2023-03-15T04:01:00.604Z,.27
2023-03-15T04:01:33.088Z,.27
2023-03-15T04:02:04.634Z,.27
2023-03-15T04:02:36.430Z,.27
2023-03-15T04:03:08.439Z,.27
2023-03-15T04:03:40.775Z,.27
2023-03-15T04:04:12.526Z,.27
2023-03-15T04:04:44.351Z,.27
2023-03-15T04:05:16.354Z,.27
2023-03-15T04:05:48.376Z,.27
2023-03-15T04:06:20.569Z,.27
2023-03-15T04:06:52.265Z,.27
2023-03-15T04:07:24.258Z,.27
2023-03-15T04:07:56.279Z,.27
2023-03-15T04:08:28.336Z,.27
2023-03-15T04:09:00.213Z,.27
2023-03-15T04:09:32.202Z,.27
2023-03-15T04:10:04.231Z,.27
2023-03-15T04:10:36.351Z,.38
2023-03-15T04:11:08.122Z,.38
2023-03-15T04:11:40.099Z,.38
2023-03-15T04:12:12.148Z,.38
2023-03-15T04:12:44.193Z,.38
2023-03-15T04:13:15.948Z,.38
2023-03-15T04:13:47.987Z,.38
2023-03-15T04:14:19.994Z,.38
2023-03-15T04:14:52.046Z,.38
2023-03-15T04:15:24.039Z,.38
2023-03-15T04:15:55.914Z,.38
2023-03-15T04:16:28.003Z,.38
2023-03-15T04:16:59.999Z,.38
2023-03-15T04:17:31.820Z,.38
2023-03-15T04:18:03.811Z,.38
2023-03-15T04:18:35.828Z,.38
2023-03-15T04:19:07.840Z,.38
2023-03-15T04:19:40.098Z,.38
2023-03-15T04:20:11.699Z,.38
2023-03-15T04:20:43.709Z,.38
2023-03-15T04:21:15.741Z,.38
2023-03-15T04:21:47.869Z,.38
2023-03-15T04:22:19.630Z,.38
2023-03-15T04:22:51.626Z,.50
2023-03-15T04:23:23.677Z,.50
2023-03-15T04:23:55.691Z,.50
2023-03-15T04:24:27.510Z,.50
2023-03-15T04:24:59.578Z,.50
2023-03-15T04:25:31.614Z,.50
2023-03-15T04:26:03.455Z,.50
2023-03-15T04:26:35.427Z,.50
2023-03-15T04:27:07.439Z,.50
2023-03-15T04:27:39.548Z,.50
2023-03-15T04:28:11.520Z,.50
2023-03-15T04:28:43.342Z,.50
2023-03-15T04:29:15.409Z,.50
2023-03-15T04:29:47.379Z,.50
2023-03-15T04:30:19.591Z,.50
2023-03-15T04:30:51.289Z,.50
2023-03-15T04:31:23.316Z,.50
2023-03-15T04:31:55.296Z,.50
2023-03-15T04:32:27.321Z,.50
2023-03-15T04:32:59.371Z,.50
2023-03-15T04:33:31.252Z,.50
2023-03-15T04:34:03.238Z,.50
2023-03-15T04:34:35.236Z,.50
2023-03-15T04:35:07.053Z,.50
2023-03-15T04:35:39.188Z,.50
2023-03-15T04:36:11.334Z,.50
2023-03-15T04:36:43.147Z,.50
2023-03-15T04:37:15.053Z,.50
2023-03-15T04:37:47.036Z,.50
2023-03-15T04:38:19.061Z,.50
2023-03-15T04:38:51.157Z,.50
2023-03-15T04:39:22.868Z,.50
2023-03-15T04:39:54.879Z,.50
2023-03-15T04:40:27.067Z,.50
2023-03-15T04:40:58.936Z,.50
2023-03-15T04:41:30.896Z,.50
2023-03-15T04:42:02.842Z,.50
2023-03-15T04:42:34.822Z,.50
2023-03-15T04:43:06.844Z,.50
2023-03-15T04:43:38.697Z,.50
2023-03-15T04:44:10.901Z,.50
2023-03-15T04:44:42.755Z,.50
2023-03-15T04:45:15.000Z,.50
2023-03-15T04:45:46.608Z,.50
2023-03-15T04:46:18.734Z,.50
2023-03-15T04:46:50.971Z,.50
2023-03-15T04:47:22.683Z,.50
2023-03-15T04:47:54.502Z,.50
2023-03-15T04:48:26.538Z,.50
2023-03-15T04:48:58.562Z,.50
2023-03-15T04:49:30.856Z,.50
2023-03-15T04:50:02.472Z,.50
2023-03-15T04:50:34.449Z,.50
2023-03-15T04:51:06.452Z,.50
2023-03-15T04:51:38.545Z,.50
2023-03-15T04:52:10.462Z,.50
2023-03-15T04:52:42.358Z,.50
2023-03-15T04:53:14.503Z,.50
2023-03-15T04:53:46.402Z,.50
2023-03-15T04:54:18.414Z,.50
2023-03-15T04:54:50.357Z,.61
2023-03-15T04:55:22.304Z,.61
2023-03-15T04:55:54.301Z,.61
2023-03-15T04:56:26.130Z,.61
2023-03-15T04:56:58.167Z,.61
2023-03-15T04:57:30.265Z,.61
2023-03-15T04:58:02.269Z,.61
2023-03-15T04:58:34.114Z,.61
2023-03-15T04:59:06.066Z,.61
2023-03-15T04:59:38.162Z,.61
2023-03-15T05:00:10.559Z,.61
2023-03-15T05:00:42.296Z,.61
2023-03-15T05:01:14.040Z,.61
2023-03-15T05:01:46.060Z,.61
2023-03-15T05:02:18.084Z,.61
2023-03-15T05:02:50.054Z,.61
2023-03-15T05:03:21.896Z,.61
2023-03-15T05:03:53.922Z,.61
2023-03-15T05:04:25.935Z,.61
2023-03-15T05:04:57.988Z,.61
2023-03-15T05:05:30.030Z,.61
2023-03-15T05:06:01.875Z,.61
2023-03-15T05:06:33.873Z,.61
2023-03-15T05:07:05.890Z,.61
2023-03-15T05:07:37.700Z,.72
2023-03-15T05:08:09.740Z,.72
2023-03-15T05:08:41.818Z,.72
2023-03-15T05:09:13.771Z,.72
2023-03-15T05:09:45.606Z,.72
2023-03-15T05:10:17.620Z,.72
2023-03-15T05:10:49.681Z,.72
2023-03-15T05:11:21.727Z,.72
2023-03-15T05:11:53.512Z,.72
2023-03-15T05:12:25.640Z,.72
2023-03-15T05:12:57.568Z,.77
2023-03-15T05:13:29.648Z,.77
2023-03-15T05:14:01.590Z,.77
2023-03-15T05:14:33.437Z,.77
2023-03-15T05:15:05.857Z,.77
2023-03-15T05:15:37.613Z,.88
2023-03-15T05:16:09.347Z,.88
2023-03-15T05:16:41.457Z,.88
2023-03-15T05:17:13.390Z,.88
2023-03-15T05:17:45.404Z,1.00
2023-03-15T05:18:17.296Z,1.00
2023-03-15T05:18:49.324Z,1.00
2023-03-15T05:19:21.316Z,1.00
2023-03-15T05:19:53.309Z,1.00
2023-03-15T05:20:25.147Z,1.00
2023-03-15T05:20:57.171Z,1.00
2023-03-15T05:21:29.256Z,1.00
2023-03-15T05:22:01.303Z,1.11
2023-03-15T05:22:33.046Z,1.11
2023-03-15T05:23:05.077Z,1.11
2023-03-15T05:23:37.108Z,1.11
2023-03-15T05:24:09.141Z,1.11
2023-03-15T05:24:41.164Z,1.11
2023-03-15T05:25:13.003Z,1.22
2023-03-15T05:25:45.041Z,1.22
2023-03-15T05:26:17.052Z,1.22
2023-03-15T05:26:48.886Z,1.22
2023-03-15T05:27:21.154Z,1.22
2023-03-15T05:27:52.985Z,1.22
2023-03-15T05:28:25.081Z,1.22
2023-03-15T05:28:56.822Z,1.22
2023-03-15T05:29:28.837Z,1.22
2023-03-15T05:30:01.176Z,1.22
2023-03-15T05:30:32.874Z,1.27
2023-03-15T05:31:04.733Z,1.27
2023-03-15T05:31:36.764Z,1.27
2023-03-15T05:32:09.332Z,1.27
2023-03-15T05:32:40.999Z,1.27
2023-03-15T05:33:12.614Z,1.27
2023-03-15T05:33:44.691Z,1.27
2023-03-15T05:34:16.681Z,1.27
2023-03-15T05:34:48.835Z,1.27
2023-03-15T05:35:21.169Z,1.27
2023-03-15T05:35:52.773Z,1.27
2023-03-15T05:36:24.629Z,1.27
2023-03-15T05:36:56.653Z,1.27
2023-03-15T05:37:28.495Z,1.27
2023-03-15T05:38:00.641Z,1.38
2023-03-15T05:38:32.549Z,1.38
2023-03-15T05:39:04.523Z,1.38
2023-03-15T05:39:36.365Z,1.38
2023-03-15T05:40:08.398Z,1.38
2023-03-15T05:40:40.574Z,1.38
2023-03-15T05:41:12.488Z,1.38
2023-03-15T05:41:44.284Z,1.38
2023-03-15T05:42:16.415Z,1.38
2023-03-15T05:42:48.316Z,1.38
2023-03-15T05:43:20.401Z,1.38
2023-03-15T05:43:52.299Z,1.38
2023-03-15T05:44:24.230Z,1.50
2023-03-15T05:44:56.244Z,1.50
2023-03-15T05:45:28.459Z,1.50
2023-03-15T05:46:00.245Z,1.50
2023-03-15T05:46:32.155Z,1.50
2023-03-15T05:47:04.190Z,1.50
2023-03-15T05:47:36.182Z,1.50
2023-03-15T05:48:08.220Z,1.50
2023-03-15T05:48:40.164Z,1.50
2023-03-15T05:49:12.104Z,1.50
2023-03-15T05:49:44.101Z,1.50
2023-03-15T05:50:15.915Z,1.50
2023-03-15T05:50:47.962Z,1.50
2023-03-15T05:51:19.990Z,1.50
2023-03-15T05:51:52.004Z,1.50
2023-03-15T05:52:23.819Z,1.50
2023-03-15T05:52:55.878Z,1.50
2023-03-15T05:53:27.910Z,1.50
2023-03-15T05:53:59.937Z,1.50
2023-03-15T05:54:31.741Z,1.50
2023-03-15T05:55:03.760Z,1.50
2023-03-15T05:55:35.778Z,1.50
2023-03-15T05:56:07.886Z,1.50
2023-03-15T05:56:39.695Z,1.50
2023-03-15T05:57:11.698Z,1.50
2023-03-15T05:57:43.697Z,1.50
2023-03-15T05:58:15.725Z,1.50
2023-03-15T05:58:47.569Z,1.50
2023-03-15T05:59:19.605Z,1.50
2023-03-15T05:59:52.672Z,1.50
2023-03-15T06:00:23.863Z,1.50
2023-03-15T06:00:55.868Z,1.50
2023-03-15T06:01:27.541Z,1.61
2023-03-15T06:01:59.617Z,1.61
2023-03-15T06:02:31.580Z,1.61
2023-03-15T06:03:03.496Z,1.61
2023-03-15T06:03:35.476Z,1.50
2023-03-15T06:04:07.508Z,1.50
2023-03-15T06:04:39.709Z,1.50
2023-03-15T06:05:11.305Z,1.50
2023-03-15T06:05:43.297Z,1.50
2023-03-15T06:06:15.377Z,1.50
2023-03-15T06:06:47.420Z,1.50
2023-03-15T06:07:19.233Z,1.50
2023-03-15T06:07:51.291Z,1.50
2023-03-15T06:08:23.293Z,1.50
2023-03-15T06:08:55.619Z,1.50
2023-03-15T06:09:27.140Z,1.50
2023-03-15T06:09:59.189Z,1.50
2023-03-15T06:10:31.224Z,1.50
2023-03-15T06:11:03.222Z,1.50
2023-03-15T06:11:35.333Z,1.50
2023-03-15T06:12:07.048Z,1.61
2023-03-15T06:12:39.087Z,1.61
2023-03-15T06:13:11.217Z,1.61
2023-03-15T06:13:43.009Z,1.61
2023-03-15T06:14:14.954Z,1.61
2023-03-15T06:14:46.998Z,1.61
2023-03-15T06:15:19.161Z,1.61
2023-03-15T06:15:51.131Z,1.61
2023-03-15T06:16:22.902Z,1.61
2023-03-15T06:16:55.264Z,1.61
2023-03-15T06:17:26.954Z,1.61
2023-03-15T06:17:58.782Z,1.61
2023-03-15T06:18:31.016Z,1.61
2023-03-15T06:19:02.793Z,1.61
2023-03-15T06:19:37.728Z,1.72
2023-03-15T06:20:06.673Z,1.72
2023-03-15T06:20:38.733Z,1.72
2023-03-15T06:21:10.901Z,1.72
2023-03-15T06:21:42.748Z,1.72
2023-03-15T06:22:14.575Z,1.72
2023-03-15T06:22:46.606Z,1.72
2023-03-15T06:23:18.660Z,1.72
2023-03-15T06:23:50.793Z,1.72
2023-03-15T06:24:22.498Z,1.77
2023-03-15T06:24:54.513Z,1.77
2023-03-15T06:25:26.588Z,1.77
2023-03-15T06:25:58.620Z,1.77
2023-03-15T06:26:30.656Z,1.77
2023-03-15T06:27:02.470Z,1.77
2023-03-15T06:27:34.453Z,1.77
2023-03-15T06:28:06.611Z,1.77
2023-03-15T06:28:38.329Z,1.77
2023-03-15T06:29:10.482Z,1.77
2023-03-15T06:29:42.360Z,1.77
2023-03-15T06:30:16.972Z,1.88
2023-03-15T06:30:46.271Z,1.88
2023-03-15T06:31:18.301Z,1.88
2023-03-15T06:31:50.324Z,1.88
2023-03-15T06:32:22.388Z,1.88
2023-03-15T06:32:54.196Z,1.88
2023-03-15T06:33:26.210Z,1.88
2023-03-15T06:33:58.305Z,1.88
2023-03-15T06:34:30.279Z,1.88
2023-03-15T06:35:02.085Z,1.88
2023-03-15T06:35:34.114Z,1.88
2023-03-15T06:36:06.190Z,1.88
2023-03-15T06:36:38.127Z,1.88
2023-03-15T06:37:09.960Z,1.88
2023-03-15T06:37:41.999Z,1.88
2023-03-15T06:38:14.017Z,1.88
2023-03-15T06:38:46.060Z,1.88
2023-03-15T06:39:17.921Z,1.88
2023-03-15T06:39:49.928Z,1.88
2023-03-15T06:40:22.014Z,1.77
2023-03-15T06:40:53.945Z,1.77
2023-03-15T06:41:25.782Z,1.77
2023-03-15T06:41:57.813Z,1.77
2023-03-15T06:42:29.868Z,1.77
2023-03-15T06:43:01.861Z,1.77
2023-03-15T06:43:33.683Z,1.77
2023-03-15T06:44:05.682Z,1.77
2023-03-15T06:44:37.712Z,1.77
2023-03-15T06:45:10.075Z,1.77
2023-03-15T06:45:41.783Z,1.77
2023-03-15T06:46:13.626Z,1.77
2023-03-15T06:46:45.670Z,1.77
2023-03-15T06:47:17.669Z,1.77
2023-03-15T06:47:49.511Z,1.77
2023-03-15T06:48:21.700Z,1.77
2023-03-15T06:48:53.565Z,1.77
2023-03-15T06:49:25.599Z,1.77
2023-03-15T06:49:57.647Z,1.77
2023-03-15T06:50:37.271Z,1.77
2023-03-15T06:51:01.498Z,1.77
2023-03-15T06:51:33.554Z,1.77
2023-03-15T06:52:05.491Z,1.77
2023-03-15T06:52:37.326Z,1.77
2023-03-15T06:53:09.358Z,1.77
2023-03-15T06:53:41.429Z,1.77
2023-03-15T06:54:13.404Z,1.77
2023-03-15T06:54:45.215Z,1.77
2023-03-15T06:55:17.245Z,1.77
2023-03-15T06:55:49.276Z,1.77
2023-03-15T06:56:21.282Z,1.77
2023-03-15T06:56:53.152Z,1.77
2023-03-15T06:57:25.182Z,1.77
2023-03-15T06:57:57.216Z,1.77
2023-03-15T06:58:29.289Z,1.77
2023-03-15T06:59:01.171Z,1.77
2023-03-15T06:59:33.076Z,1.72
2023-03-15T07:00:05.487Z,1.72
2023-03-15T07:00:37.143Z,1.72
2023-03-15T07:01:08.991Z,1.72
2023-03-15T07:01:41.157Z,1.72
2023-03-15T07:02:13.156Z,1.72
2023-03-15T07:02:45.108Z,1.61
2023-03-15T07:03:16.877Z,1.61
2023-03-15T07:03:48.980Z,1.61
2023-03-15T07:04:21.217Z,1.61
2023-03-15T07:04:52.945Z,1.61
2023-03-15T07:05:24.864Z,1.61
2023-03-15T07:05:56.821Z,1.61
2023-03-15T07:06:28.852Z,1.61
2023-03-15T07:07:01.095Z,1.61
2023-03-15T07:07:32.706Z,1.50
2023-03-15T07:08:04.737Z,1.50
2023-03-15T07:08:36.754Z,1.50
2023-03-15T07:09:08.783Z,1.50
2023-03-15T07:09:40.750Z,1.50
2023-03-15T07:10:12.676Z,1.50
2023-03-15T07:10:44.634Z,1.50
2023-03-15T07:11:16.702Z,1.50
2023-03-15T07:11:48.555Z,1.50
2023-03-15T07:12:20.608Z,1.50
2023-03-15T07:12:52.586Z,1.50
2023-03-15T07:13:24.593Z,1.50